Hume, MO (64752)

11:53 PM CST on December 25, 2014 (GMT -0600)
ASKC DSS | Change Station
CLOSE
Current Station
Personal Weather Station
Location: Foster, MO
Elevation: 778 ft
Nearby Weather Stations

Elev 778 ft 38.21 °N, 94.53 °W | Updated 15 minutes ago

Partly Cloudy
Partly Cloudy
46.9 °F
Feels Like 44 °F
N
5.3
Wind Variable Wind from South

Today
High -- | Low -- °F
--% Chance of Precip.
Yesterday
High -- | Low -- °F
Precip. -- in
7:32 AM 5:04 PM
Waxing Crescent, 22% visible
Pressure 29.86 in
Visibility 10.0 miles
Clouds Clear
Windchill 44 °F
Dew Point 34 °F
Humidity 60%
Rainfall 0.00 in
Snow Depth Not available.
UV 0 out of 12
Pollen .10 out of 12
Air Quality Not available.
Flu Activity Not available.
METAR KPTS 260535Z AUTO 20010KT 10SM CLR 09/01 A2986 RMK AO2 T00910010

More Conditions Fewer Conditions

Pressure 29.86 in
Visibility 10.0 miles
Clouds Clear
Windchill 44 °F
Dew Point 34 °F
Humidity 60%
Rainfall 0.00 in
Snow Depth Not available.
UV 0 out of 12
Pollen .10 out of 12
Air Quality Not available.
Flu Activity Not available.
METAR KPTS 260535Z AUTO 20010KT 10SM CLR 09/01 A2986 RMK AO2 T00910010

More Conditions Fewer Conditions

10-Day Weather Forecast

Almanac

Astronomy

Dec. 25, 2014 Rise Set
Actual Time
Civil Twilight
Nautical Twilight
Astronomical Twilight
Moon
Length of Visible Light
Length of Day
Tomorrow will be .
, % of the Moon is Illuminated

Today's Extremes

State Highs State Lows

Community

WunderPhotos

Upload Photos

1,780,551 photos uploaded!

WunderBlogs® & News

Nearby

Air Quality

  Air Quality AQ Index Pollutant
Not available.

Snow Depth

Station Depth Elevation

Earthquake Activity

City Distance Mag. Time & Date
Minimum magnitude displayed is 2.5.

Coastal Water Temperatures

Place Temperature

Nearby Weather Stations